Time;durP1;ratioP1;P1;durP2;ratioP2;P2;SDS_P1;SDS_P2;PMS_P1;PMS_P2;Temp;Humidity;BMP_temperature;BMP_pressure;BME280_temperature;BME280_humidity;BME280_pressure;Samples;Min_cycle;Max_cycle;Signal;HPM_P1;HPM_P2
2022/09/29 00:01:06;;;;;;;1.60;1.20;;;;;;;10.53;91.33;94209.88;5052820;28;20578;-81
2022/09/29 00:03:32;;;;;;;1.40;1.30;;;;;;;10.55;91.52;94215.63;5051040;28;20194;-82
2022/09/29 00:06:00;;;;;;;1.50;1.40;;;;;;;10.62;91.78;94211.19;5052141;28;20225;-82
2022/09/29 00:08:29;;;;;;;1.40;1.30;;;;;;;10.63;91.36;94215.34;5051443;28;20229;-81
2022/09/29 00:10:56;;;;;;;4.63;1.30;;;;;;;10.63;90.75;94210.97;5051199;28;20209;-81
2022/09/29 00:13:23;;;;;;;1.40;1.30;;;;;;;10.60;90.86;94205.47;5052050;28;20205;-80
2022/09/29 00:15:57;;;;;;;1.40;1.30;;;;;;;10.64;90.63;94214.34;5050829;28;20239;-80
2022/09/29 00:18:24;;;;;;;2.87;1.30;;;;;;;10.59;90.35;94209.81;5051997;28;20219;-82
2022/09/29 00:21:03;;;;;;;1.57;1.20;;;;;;;10.64;89.70;94211.78;5050011;28;20193;-82
2022/09/29 00:23:30;;;;;;;1.30;1.20;;;;;;;10.65;90.37;94216.72;5052109;28;20209;-82
2022/09/29 00:26:02;;;;;;;1.47;1.37;;;;;;;10.71;90.25;94217.66;5051818;28;20229;-82
2022/09/29 00:28:29;;;;;;;1.90;1.20;;;;;;;10.71;89.81;94222.81;5051588;28;20259;-82
2022/09/29 00:30:55;;;;;;;1.07;0.97;;;;;;;10.74;89.51;94214.69;5050819;28;20225;-82
2022/09/29 00:33:22;;;;;;;1.53;1.10;;;;;;;10.75;89.76;94213.69;5052109;28;20202;-83
2022/09/29 00:35:57;;;;;;;1.30;1.20;;;;;;;10.74;89.19;94212.09;5050169;28;20228;-82
2022/09/29 00:38:26;;;;;;;1.07;1.00;;;;;;;10.71;89.22;94208.16;5051841;28;20307;-83
2022/09/29 00:40:52;;;;;;;1.90;1.20;;;;;;;10.72;89.11;94206.38;5051525;28;20197;-83
2022/09/29 00:43:21;;;;;;;2.30;1.20;;;;;;;10.71;89.01;94205.59;5052457;28;20193;-81
2022/09/29 00:45:48;;;;;;;2.00;1.10;;;;;;;10.65;89.00;94203.84;5051046;28;20221;-82
2022/09/29 00:48:19;;;;;;;1.23;1.13;;;;;;;10.65;88.80;94195.34;5051170;28;20222;-82
2022/09/29 00:50:49;;;;;;;0.97;0.97;;;;;;;10.61;89.01;94194.97;5050839;28;20766;-83
2022/09/29 00:53:19;;;;;;;1.20;1.13;;;;;;;10.56;88.96;94186.31;5050015;28;20204;-82
2022/09/29 00:55:50;;;;;;;1.40;1.30;;;;;;;10.54;88.91;94186.53;5050462;28;20248;-82
2022/09/29 00:58:25;;;;;;;2.30;1.20;;;;;;;10.47;89.45;94183.22;5051265;28;20213;-82
2022/09/29 01:00:53;;;;;;;1.37;1.27;;;;;;;10.43;90.34;94178.69;5050350;28;20193;-82
2022/09/29 01:03:24;;;;;;;2.60;1.23;;;;;;;10.44;90.00;94173.31;5051472;28;20276;-81
2022/09/29 01:05:54;;;;;;;3.00;1.40;;;;;;;10.41;90.42;94170.38;5050679;28;20224;-83
2022/09/29 01:08:26;;;;;;;1.37;1.07;;;;;;;10.43;89.82;94178.69;5048068;28;20233;-83
2022/09/29 01:10:54;;;;;;;1.17;1.00;;;;;;;10.42;89.66;94183.03;5049549;28;20556;-81
2022/09/29 01:13:22;;;;;;;1.30;1.20;;;;;;;10.43;89.57;94174.31;5051643;28;20198;-83
2022/09/29 01:15:48;;;;;;;1.33;1.10;;;;;;;10.47;89.53;94178.06;5050467;28;20276;-82
2022/09/29 01:18:15;;;;;;;2.17;1.20;;;;;;;10.49;89.88;94178.63;5051024;28;20214;-82
2022/09/29 01:20:53;;;;;;;1.23;1.13;;;;;;;10.50;90.20;94174.28;5050588;28;20201;-81
2022/09/29 01:23:51;;;;;;;1.63;1.20;;;;;;;10.50;89.34;94169.94;5051337;28;20201;-82
2022/09/29 01:26:50;;;;;;;1.00;1.00;;;;;;;10.51;88.85;94168.94;5049073;28;20820;-81
2022/09/29 01:29:47;;;;;;;1.90;1.40;;;;;;;10.48;89.02;94173.69;5046400;28;20225;-82
2022/09/29 01:32:23;;;;;;;2.20;1.73;;;;;;;10.51;89.32;94165.56;5045356;28;20192;-82
2022/09/29 01:34:59;;;;;;;2.10;1.33;;;;;;;10.52;89.48;94178.22;5051026;28;20209;-80
2022/09/29 01:37:38;;;;;;;1.37;1.27;;;;;;;10.54;89.02;94173.66;5050277;28;20224;-81
2022/09/29 01:40:11;;;;;;;2.27;1.50;;;;;;;10.54;89.37;94176.22;5048796;28;20213;-81
2022/09/29 01:42:49;;;;;;;1.20;1.10;;;;;;;10.51;88.79;94168.13;5051199;28;20202;-81
2022/09/29 01:45:22;;;;;;;1.43;1.30;;;;;;;10.53;88.90;94169.50;5046184;28;20200;-82
2022/09/29 01:47:55;;;;;;;1.50;1.37;;;;;;;10.51;88.84;94166.34;5050582;28;20236;-83
2022/09/29 01:50:27;;;;;;;2.77;1.20;;;;;;;10.55;88.89;94164.94;5051226;28;20573;-81
2022/09/29 01:52:58;;;;;;;1.70;1.37;;;;;;;10.55;88.97;94166.72;5050270;28;20224;-82
2022/09/29 01:55:29;;;;;;;1.23;1.13;;;;;;;10.58;88.53;94156.78;5051276;28;20224;-81
2022/09/29 01:58:00;;;;;;;1.60;1.50;;;;;;;10.60;88.42;94156.56;5049738;28;20255;-80
2022/09/29 02:00:30;;;;;;;1.50;1.30;;;;;;;10.55;88.49;94156.44;5055364;28;20201;-82
2022/09/29 02:03:06;;;;;;;3.60;1.60;;;;;;;10.51;89.27;94160.41;5054893;28;20661;-82
2022/09/29 02:05:37;;;;;;;1.67;1.57;;;;;;;10.47;89.37;94172.13;5045330;28;20229;-81
2022/09/29 02:08:08;;;;;;;1.80;1.40;;;;;;;10.51;88.97;94175.84;5054399;28;20719;-83
2022/09/29 02:10:39;;;;;;;2.53;1.60;;;;;;;10.51;88.36;94166.34;5055288;28;20205;-82
2022/09/29 02:13:10;;;;;;;1.73;1.53;;;;;;;10.51;88.46;94170.72;5054259;28;20205;-81
2022/09/29 02:15:42;;;;;;;3.07;1.73;;;;;;;10.50;88.25;94169.94;5055043;28;20229;-81
2022/09/29 02:18:16;;;;;;;2.10;1.90;;;;;;;10.50;87.82;94167.34;5048501;28;20216;-83
2022/09/29 02:20:42;;;;;;;2.50;1.60;;;;;;;10.49;87.80;94162.41;5054762;28;20197;-81
2022/09/29 02:23:09;;;;;;;1.60;1.50;;;;;;;10.45;87.01;94166.41;5048714;28;20201;-82
2022/09/29 02:25:38;;;;;;;1.90;1.53;;;;;;;10.37;88.01;94162.31;5053737;28;20241;-83
2022/09/29 02:28:06;;;;;;;1.47;1.37;;;;;;;10.36;88.17;94163.31;5052583;28;20670;-82
2022/09/29 02:30:33;;;;;;;1.73;1.60;;;;;;;10.36;88.57;94166.69;5053226;28;20205;-82
2022/09/29 02:32:59;;;;;;;2.10;1.50;;;;;;;10.34;88.18;94171.25;5054198;28;20738;-83
2022/09/29 02:35:43;;;;;;;3.73;1.77;;;;;;;10.33;88.36;94161.94;5053575;28;20233;-82
2022/09/29 02:38:19;;;;;;;2.23;1.57;;;;;;;10.35;88.71;94172.81;5050180;28;20581;-80
2022/09/29 02:40:53;;;;;;;2.13;1.70;;;;;;;10.35;88.59;94175.38;5053742;28;20197;-81
2022/09/29 02:43:36;;;;;;;1.90;1.70;;;;;;;10.35;88.73;94183.09;5054434;28;20193;-82
2022/09/29 02:46:15;;;;;;;2.27;2.07;;;;;;;10.35;88.57;94172.03;5051578;28;20918;-82
2022/09/29 02:48:59;;;;;;;3.50;2.10;;;;;;;10.29;88.98;94183.94;5053370;28;20724;-82
2022/09/29 02:51:31;;;;;;;2.50;2.00;;;;;;;10.26;89.35;94174.06;5048316;28;20205;-81
2022/09/29 02:54:19;;;;;;;2.30;2.10;;;;;;;10.27;89.49;94165.34;5053637;28;20669;-81
2022/09/29 02:56:52;;;;;;;3.70;2.07;;;;;;;10.26;89.61;94160.41;5053078;28;20588;-82
2022/09/29 02:59:24;;;;;;;2.27;2.07;;;;;;;10.18;90.14;94168.38;5047921;28;20646;-83
2022/09/29 03:01:52;;;;;;;2.33;2.10;;;;;;;10.12;91.06;94162.25;5048983;28;20241;-82
2022/09/29 03:04:19;;;;;;;2.27;2.07;;;;;;;10.04;92.11;94165.06;5053149;28;20201;-81
2022/09/29 03:06:47;;;;;;;2.13;1.70;;;;;;;9.88;92.00;94156.09;5052205;28;20233;-83
2022/09/29 03:09:14;;;;;;;1.80;1.70;;;;;;;9.93;91.53;94160.59;5053198;28;20703;-82
2022/09/29 03:11:40;;;;;;;2.57;2.27;;;;;;;9.89;91.67;94156.88;5052224;28;20206;-82
2022/09/29 03:14:09;;;;;;;2.73;2.10;;;;;;;9.88;91.81;94155.28;5053979;28;20202;-83
2022/09/29 03:16:36;;;;;;;2.10;2.00;;;;;;;9.89;91.42;94162.78;5051641;28;20627;-81
2022/09/29 03:19:04;;;;;;;2.30;2.10;;;;;;;9.97;91.14;94161.78;5052790;28;20225;-81
2022/09/29 03:21:31;;;;;;;2.40;2.20;;;;;;;10.00;91.22;94153.66;5053399;28;20201;-82
2022/09/29 03:23:59;;;;;;;2.33;2.13;;;;;;;9.92;91.59;94157.25;5053225;28;20595;-82
2022/09/29 03:26:25;;;;;;;3.53;2.50;;;;;;;9.91;92.09;94149.75;5052511;28;20236;-81
2022/09/29 03:28:52;;;;;;;2.50;2.30;;;;;;;9.90;91.31;94155.88;5052860;28;20584;-83
2022/09/29 03:31:20;;;;;;;2.23;2.03;;;;;;;9.96;91.22;94153.28;5053042;28;20626;-82
2022/09/29 03:33:46;;;;;;;2.77;2.10;;;;;;;10.02;91.13;94162.72;5052824;28;20224;-83
2022/09/29 03:36:13;;;;;;;2.50;2.10;;;;;;;10.06;91.73;94155.38;5052901;28;20704;-82
2022/09/29 03:38:39;;;;;;;3.13;2.30;;;;;;;10.05;91.26;94156.38;5053114;28;20202;-82
2022/09/29 03:41:10;;;;;;;2.43;2.03;;;;;;;10.11;90.48;94141.91;5052662;28;20197;-82
2022/09/29 03:43:36;;;;;;;2.57;2.37;;;;;;;10.11;90.51;94141.91;5052781;28;20197;-82
2022/09/29 03:46:02;;;;;;;2.37;2.17;;;;;;;10.06;90.55;94137.38;5046856;28;20226;-83
2022/09/29 03:48:33;;;;;;;2.10;2.00;;;;;;;10.01;90.38;94135.41;5050531;28;20299;-82
2022/09/29 03:51:00;;;;;;;3.57;2.20;;;;;;;9.99;91.13;94144.34;5050915;28;20197;-82
2022/09/29 03:53:27;;;;;;;2.10;1.80;;;;;;;10.03;91.25;94148.84;5045455;28;20202;-82
2022/09/29 03:55:53;;;;;;;2.20;1.77;;;;;;;10.07;90.48;94163.88;5049266;28;20221;-81
2022/09/29 03:58:21;;;;;;;2.47;1.57;;;;;;;10.11;90.90;94157.31;5050066;28;20229;-82
2022/09/29 04:00:49;;;;;;;1.70;1.60;;;;;;;10.15;90.54;94159.28;5051511;28;20202;-81
2022/09/29 04:03:16;;;;;;;2.00;1.60;;;;;;;10.18;90.36;94160.66;5052307;28;20217;-82
2022/09/29 04:05:44;;;;;;;1.67;1.57;;;;;;;10.21;90.25;94166.16;5049812;28;20242;-82
2022/09/29 04:08:11;;;;;;;1.90;1.43;;;;;;;10.22;89.80;94154.88;5051580;28;20229;-83
2022/09/29 04:10:37;;;;;;;1.67;1.57;;;;;;;10.26;90.01;94157.84;5051960;28;20198;-81
2022/09/29 04:13:05;;;;;;;1.73;1.50;;;;;;;10.22;90.68;94162.59;5051591;28;20194;-81
2022/09/29 04:15:33;;;;;;;1.53;1.43;;;;;;;10.23;90.48;94165.97;5047811;28;20588;-81
2022/09/29 04:18:00;;;;;;;1.50;1.40;;;;;;;10.20;90.50;94167.16;5051323;28;20229;-83
2022/09/29 04:20:27;;;;;;;1.80;1.70;;;;;;;10.23;90.81;94163.41;5053189;28;20680;-81
2022/09/29 04:22:53;;;;;;;1.50;1.40;;;;;;;10.21;91.47;94166.16;5049510;28;20205;-83
2022/09/29 04:25:20;;;;;;;2.63;1.90;;;;;;;10.26;91.52;94158.63;5053291;28;20247;-82
2022/09/29 04:27:46;;;;;;;1.47;1.37;;;;;;;10.29;91.48;94176.22;5044323;28;20244;-82
2022/09/29 04:30:13;;;;;;;1.80;1.70;;;;;;;10.33;90.76;94156.81;5048653;28;20232;-81
2022/09/29 04:32:41;;;;;;;1.63;1.40;;;;;;;10.39;90.06;94152.59;5032608;28;20210;-82
2022/09/29 04:35:08;;;;;;;1.70;1.60;;;;;;;10.37;90.93;94155.38;5032508;28;20438;-83
2022/09/29 04:37:35;;;;;;;1.67;1.57;;;;;;;10.37;91.39;94157.16;5039374;28;20754;-82
2022/09/29 04:40:02;;;;;;;1.67;1.57;;;;;;;10.31;92.14;94163.16;5051809;28;20202;-82
2022/09/29 04:42:29;;;;;;;2.43;1.67;;;;;;;10.30;92.51;94164.94;5052389;28;20189;-82
2022/09/29 04:44:55;;;;;;;1.80;1.70;;;;;;;10.36;91.53;94173.59;5051846;28;20205;-82
2022/09/29 04:47:22;;;;;;;1.60;1.50;;;;;;;10.37;91.40;94167.47;5051086;28;20592;-82
2022/09/29 04:49:50;;;;;;;1.97;1.63;;;;;;;10.39;91.68;94165.47;5052247;28;20218;-83
2022/09/29 04:52:16;;;;;;;1.53;1.43;;;;;;;10.36;91.84;94164.09;5051420;28;20680;-82
2022/09/29 04:54:43;;;;;;;2.13;1.93;;;;;;;10.40;91.50;94161.88;5048933;28;20581;-82
2022/09/29 04:57:09;;;;;;;2.23;2.00;;;;;;;10.35;91.79;94151.44;5051562;28;20286;-83
2022/09/29 04:59:36;;;;;;;1.70;1.60;;;;;;;10.31;91.30;94140.78;5051456;28;20218;-82
2022/09/29 05:02:02;;;;;;;1.40;1.30;;;;;;;10.28;92.62;94143.78;5051613;28;20206;-83
2022/09/29 05:04:29;;;;;;;1.73;1.40;;;;;;;10.33;92.49;94140.56;5051918;28;20740;-82
2022/09/29 05:06:57;;;;;;;1.70;1.60;;;;;;;10.30;92.60;94135.84;5051424;28;20715;-82
2022/09/29 05:09:23;;;;;;;1.70;1.60;;;;;;;10.23;93.68;94138.47;5051047;28;20222;-82
2022/09/29 05:11:49;;;;;;;1.73;1.63;;;;;;;10.28;93.23;94136.06;5050751;28;20212;-82
2022/09/29 05:14:16;;;;;;;1.70;1.60;;;;;;;10.17;93.89;94130.78;5051656;28;20591;-83
2022/09/29 05:16:42;;;;;;;1.80;1.70;;;;;;;10.14;94.36;94133.78;5051214;28;20256;-81
2022/09/29 05:19:09;;;;;;;1.47;1.37;;;;;;;10.20;94.30;94138.88;5052190;28;20210;-82
2022/09/29 05:21:36;;;;;;;1.90;1.70;;;;;;;10.22;94.01;94126.59;5051727;28;20202;-82
2022/09/29 05:24:04;;;;;;;2.30;1.97;;;;;;;10.18;94.15;94133.16;5052238;28;20240;-81
2022/09/29 05:26:31;;;;;;;2.30;1.77;;;;;;;10.20;94.11;94140.69;5050464;28;20234;-80
2022/09/29 05:28:57;;;;;;;1.57;1.47;;;;;;;10.24;93.92;94147.75;5051105;28;20232;-82
2022/09/29 05:31:24;;;;;;;1.67;1.57;;;;;;;10.26;94.08;94143.19;5052132;28;20205;-83
2022/09/29 05:33:50;;;;;;;1.83;1.73;;;;;;;10.30;94.04;94146.94;5052007;28;20198;-82
2022/09/29 05:36:17;;;;;;;2.37;1.80;;;;;;;10.34;93.64;94130.09;5051266;28;20904;-81
2022/09/29 05:38:43;;;;;;;2.10;1.90;;;;;;;10.37;93.21;94119.38;5050991;28;20216;-82
2022/09/29 05:41:12;;;;;;;1.90;1.80;;;;;;;10.39;93.29;94129.47;5051580;28;20198;-82
2022/09/29 05:43:40;;;;;;;2.03;1.90;;;;;;;10.41;93.23;94116.34;5050045;28;20205;-82
2022/09/29 05:46:08;;;;;;;2.70;1.90;;;;;;;10.42;95.27;94112.78;5051153;28;20220;-82
2022/09/29 05:48:35;;;;;;;2.20;1.90;;;;;;;10.37;95.78;94127.09;5050972;28;20221;-83
2022/09/29 05:51:08;;;;;;;3.53;1.83;;;;;;;10.37;96.03;94129.66;5038796;28;20213;-82
2022/09/29 05:53:34;;;;;;;2.10;1.67;;;;;;;10.36;96.87;94128.09;5030722;28;20213;-82
2022/09/29 05:56:04;;;;;;;3.20;1.97;;;;;;;10.36;96.43;94133.22;5035024;28;20864;-82
2022/09/29 05:58:32;;;;;;;15.03;12.20;;;;;;;10.42;96.49;94130.78;5050206;28;20290;-83
2022/09/29 06:00:59;;;;;;;10.70;9.07;;;;;;;10.49;95.41;94129.75;5050291;28;20224;-83
2022/09/29 06:03:25;;;;;;;8.77;7.80;;;;;;;10.53;95.00;94120.63;5051289;28;20276;-82
2022/09/29 06:05:52;;;;;;;4.57;4.00;;;;;;;10.52;95.73;94125.97;5050549;28;20229;-82
2022/09/29 06:08:18;;;;;;;2.77;2.57;;;;;;;10.56;95.22;94125.34;5065299;28;20220;-82
2022/09/29 06:10:45;;;;;;;3.90;2.73;;;;;;;10.45;95.95;94118.31;5070845;28;20231;-82
2022/09/29 06:13:11;;;;;;;5.07;2.20;;;;;;;10.47;95.75;94121.44;5071195;28;20197;-82
2022/09/29 06:15:39;;;;;;;3.23;2.40;;;;;;;10.48;94.79;94125.59;5055079;28;20225;-83
2022/09/29 06:18:05;;;;;;;4.63;2.30;;;;;;;10.49;94.24;94126.38;5050540;28;20233;-82
2022/09/29 06:20:37;;;;;;;3.87;2.20;;;;;;;10.53;93.68;94133.47;5050370;28;20206;-83
2022/09/29 06:23:03;;;;;;;3.63;2.63;;;;;;;10.44;93.21;94128.81;5050683;28;20201;-82
2022/09/29 06:25:30;;;;;;;5.87;2.57;;;;;;;10.44;91.47;94126.22;5050436;28;20233;-83
2022/09/29 06:27:56;;;;;;;6.50;2.80;;;;;;;10.37;91.73;94134.03;5050374;28;20237;-82
2022/09/29 06:30:23;;;;;;;4.70;2.60;;;;;;;10.42;92.46;94126.44;5049546;28;20225;-82
2022/09/29 06:32:50;;;;;;;2.83;2.50;;;;;;;10.35;91.38;94121.38;5050747;28;20209;-81
2022/09/29 06:38:01;;;;;;;3.13;2.30;;;;;;;10.23;92.00;94133.31;5050250;28;20226;-81
2022/09/29 06:40:28;;;;;;;3.07;2.50;;;;;;;10.18;92.69;94127.22;5050641;28;20232;-83
2022/09/29 06:42:54;;;;;;;2.80;2.60;;;;;;;10.28;92.82;94125.75;5051329;28;20214;-81
2022/09/29 06:45:21;;;;;;;3.23;2.90;;;;;;;10.37;92.32;94129.66;5047503;28;20244;-83
2022/09/29 06:47:47;;;;;;;7.97;5.03;;;;;;;10.47;91.98;94141.25;5053845;28;20222;-82
2022/09/29 06:50:15;;;;;;;3.20;2.90;;;;;;;10.56;90.73;94151.06;5053760;28;20229;-80
2022/09/29 06:52:41;;;;;;;9.90;3.70;;;;;;;10.62;89.44;94139.91;5045714;28;20199;-83
2022/09/29 06:55:08;;;;;;;6.13;3.10;;;;;;;10.69;89.05;94153.53;5034889;28;20198;-81
2022/09/29 06:57:36;;;;;;;6.03;3.10;;;;;;;10.73;89.45;94149.53;5035137;28;20226;-83
2022/09/29 07:00:03;;;;;;;4.80;2.70;;;;;;;10.81;88.93;94151.03;5042053;28;20247;-83
2022/09/29 07:02:29;;;;;;;3.07;2.60;;;;;;;10.85;87.70;94151.41;5053219;28;20263;-83
2022/09/29 07:04:56;;;;;;;2.80;2.60;;;;;;;10.89;87.77;94147.41;5053998;28;20214;-82
2022/09/29 07:07:24;;;;;;;2.73;2.50;;;;;;;10.95;87.42;94149.13;5053634;28;20221;-81
2022/09/29 07:09:50;;;;;;;8.00;2.83;;;;;;;10.97;87.03;94145.31;5053278;28;20233;-82
2022/09/29 07:12:17;;;;;;;3.33;1.90;;;;;;;11.10;93.49;94146.97;5054141;28;20205;-81
2022/09/29 07:14:43;;;;;;;2.60;2.40;;;;;;;11.30;90.88;94144.97;5054593;28;20205;-83
2022/09/29 07:17:12;;;;;;;2.90;2.63;;;;;;;11.41;88.69;94154.53;5055856;28;20241;-83
2022/09/29 07:19:38;;;;;;;3.37;2.23;;;;;;;11.59;91.18;94150.38;5054927;28;20288;-83
2022/09/29 07:22:05;;;;;;;4.43;2.20;;;;;;;11.77;90.75;94151.16;5056123;28;20205;-83
2022/09/29 07:24:33;;;;;;;6.40;2.57;;;;;;;11.90;88.70;94149.41;5055847;28;20205;-84
2022/09/29 07:27:00;;;;;;;2.50;2.30;;;;;;;11.99;87.63;94151.44;5056114;28;20236;-83
2022/09/29 07:29:26;;;;;;;3.57;2.00;;;;;;;12.12;87.95;94152.28;5055533;28;20516;-83
2022/09/29 07:31:54;;;;;;;2.63;1.87;;;;;;;12.22;87.26;94158.47;5056069;28;20216;-84
2022/09/29 07:34:21;;;;;;;3.00;1.70;;;;;;;12.32;87.04;94161.28;5054822;28;20205;-84
2022/09/29 07:36:47;;;;;;;5.23;2.70;;;;;;;12.34;84.76;94163.63;5052916;28;20228;-83
2022/09/29 07:39:14;;;;;;;4.13;2.70;;;;;;;12.26;81.82;94156.22;5054167;28;20209;-83
2022/09/29 07:41:42;;;;;;;6.73;3.07;;;;;;;12.20;83.13;94157.09;5045746;28;20202;-82
2022/09/29 07:44:08;;;;;;;19.20;14.13;;;;;;;12.16;83.50;94161.91;5054467;28;20205;-83
2022/09/29 07:46:35;;;;;;;6.10;3.63;;;;;;;12.13;82.56;94156.41;5053374;28;20233;-84
2022/09/29 07:49:01;;;;;;;3.37;2.17;;;;;;;12.02;80.43;94158.75;5045148;28;20202;-84
2022/09/29 07:51:27;;;;;;;1.90;1.80;;;;;;;11.98;79.27;94161.97;5038719;28;20217;-83
2022/09/29 07:53:54;;;;;;;12.50;2.60;;;;;;;11.88;77.82;94154.00;5053644;28;20209;-81
2022/09/29 07:56:23;;;;;;;3.47;2.00;;;;;;;11.74;78.49;94154.13;5052113;28;20398;-83
2022/09/29 07:58:51;;;;;;;18.70;3.23;;;;;;;11.68;80.13;94156.81;5052273;28;20651;-81
2022/09/29 08:01:19;;;;;;;10.17;3.17;;;;;;;11.64;80.64;94151.31;5051501;28;20190;-81
2022/09/29 08:03:52;;;;;;;6.93;3.00;;;;;;;11.63;81.89;94154.88;5052621;28;20201;-83
2022/09/29 08:06:18;;;;;;;3.90;2.00;;;;;;;11.58;83.19;94156.53;5051886;28;20240;-80
2022/09/29 08:08:45;;;;;;;1.70;1.40;;;;;;;11.48;80.68;94158.84;5050678;28;20594;-83
2022/09/29 08:11:13;;;;;;;3.80;1.73;;;;;;;11.40;81.98;94170.22;5052848;28;20619;-82
2022/09/29 08:13:40;;;;;;;1.60;1.50;;;;;;;11.42;82.29;94168.22;5052886;28;20696;-82
2022/09/29 08:16:10;;;;;;;2.30;1.80;;;;;;;11.49;82.51;94166.38;5052919;28;20229;-82
2022/09/29 08:18:37;;;;;;;2.03;1.60;;;;;;;11.47;84.42;94165.78;5052481;28;20233;-82
2022/09/29 08:21:06;;;;;;;1.70;1.20;;;;;;;11.47;80.64;94165.78;5052503;28;20201;-83
2022/09/29 08:23:36;;;;;;;3.43;1.50;;;;;;;11.40;80.04;94175.38;5052193;28;20201;-81
2022/09/29 08:26:05;;;;;;;3.53;1.50;;;;;;;11.34;82.63;94181.41;5051861;28;20279;-83
2022/09/29 08:28:32;;;;;;;58.27;48.43;;;;;;;11.41;84.92;94179.53;5052240;28;20260;-82
2022/09/29 08:31:02;;;;;;;7.03;6.27;;;;;;;11.42;83.53;94184.47;5052380;28;20225;-81
2022/09/29 08:33:29;;;;;;;1.87;1.60;;;;;;;11.40;82.88;94177.94;5052944;28;20608;-82
2022/09/29 08:35:57;;;;;;;1.50;1.40;;;;;;;11.41;85.63;94182.88;5050897;28;20256;-82
2022/09/29 08:38:23;;;;;;;1.93;1.53;;;;;;;11.41;86.50;94184.69;5045113;28;20229;-81
2022/09/29 08:40:50;;;;;;;1.70;1.60;;;;;;;11.55;85.57;94186.09;5049580;28;20205;-81
2022/09/29 08:43:20;;;;;;;1.73;1.63;;;;;;;11.51;83.42;94186.75;5053075;28;20591;-83
2022/09/29 08:45:50;;;;;;;3.20;1.67;;;;;;;11.55;84.59;94177.56;5052117;28;20229;-81
2022/09/29 08:48:23;;;;;;;1.77;1.57;;;;;;;11.53;83.89;94184.75;5053176;28;20225;-82
2022/09/29 08:50:56;;;;;;;2.03;1.30;;;;;;;11.42;83.26;94187.03;5052521;28;20229;-82
2022/09/29 08:53:26;;;;;;;2.40;1.50;;;;;;;11.38;85.76;94188.47;5052387;28;20212;-83
2022/09/29 08:55:55;;;;;;;1.57;1.40;;;;;;;11.49;85.29;94186.19;5051271;28;20229;-83
2022/09/29 08:58:22;;;;;;;2.00;1.80;;;;;;;11.49;84.82;94193.91;5052118;28;20605;-81
2022/09/29 09:00:59;;;;;;;3.20;1.93;;;;;;;11.48;83.87;94190.56;5052670;28;20198;-81
2022/09/29 09:03:56;;;;;;;2.20;1.50;;;;;;;11.51;84.18;94181.63;5051968;28;20193;-82
2022/09/29 09:06:31;;;;;;;1.67;1.50;;;;;;;11.57;84.71;94191.03;5050965;28;20233;-81
2022/09/29 09:09:18;;;;;;;1.33;1.20;;;;;;;11.57;87.38;94188.47;5051132;28;20220;-83
2022/09/29 09:12:03;;;;;;;1.60;1.50;;;;;;;11.44;87.02;94189.41;5050920;28;20225;-82
2022/09/29 09:14:46;;;;;;;1.50;1.40;;;;;;;11.35;88.36;94193.28;5051554;28;20201;-83
2022/09/29 09:17:24;;;;;;;1.83;1.40;;;;;;;11.35;87.86;94195.88;5051137;28;20229;-81
2022/09/29 09:20:03;;;;;;;1.87;1.60;;;;;;;11.36;87.17;94194.84;5051543;28;20205;-82
2022/09/29 09:22:42;;;;;;;2.07;1.40;;;;;;;11.33;85.51;94201.22;5051484;28;20209;-83
2022/09/29 09:25:19;;;;;;;1.50;1.40;;;;;;;11.37;85.25;94211.88;5048089;28;20198;-82
2022/09/29 09:27:52;;;;;;;1.63;1.40;;;;;;;11.31;87.20;94205.81;5029444;28;20640;-80
2022/09/29 09:30:21;;;;;;;1.40;1.27;;;;;;;11.16;84.34;94217.47;5051783;28;20225;-81
2022/09/29 09:32:52;;;;;;;1.27;1.17;;;;;;;11.22;86.28;94217.38;5052074;28;20673;-81
2022/09/29 09:35:29;;;;;;;1.57;1.20;;;;;;;11.21;86.27;94215.81;5042920;28;20225;-82
2022/09/29 09:38:02;;;;;;;1.53;1.40;;;;;;;11.25;87.24;94208.44;5032150;28;20217;-82
2022/09/29 09:40:43;;;;;;;1.27;1.10;;;;;;;11.22;85.15;94214.81;5031569;28;20209;-83
2022/09/29 09:43:17;;;;;;;1.93;1.40;;;;;;;11.23;86.91;94213.81;5051273;28;20189;-81
2022/09/29 09:45:49;;;;;;;1.30;1.20;;;;;;;11.20;87.38;94211.66;5050347;28;20236;-83
2022/09/29 09:48:21;;;;;;;1.47;1.23;;;;;;;11.17;89.92;94206.94;5051834;28;20232;-82
2022/09/29 09:50:48;;;;;;;1.37;1.27;;;;;;;11.23;89.80;94213.03;5051607;28;20225;-82
2022/09/29 09:56:12;;;;;;;8.77;7.27;;;;;;;11.39;99.70;94205.50;5050336;28;20783;-82
2022/09/29 09:59:04;;;;;;;8.10;7.23;;;;;;;11.53;100.00;94213.13;5052172;28;20731;-83
2022/09/29 10:01:30;;;;;;;2.20;2.00;;;;;;;11.56;92.81;94220.38;5050406;28;20205;-83
2022/09/29 10:03:58;;;;;;;1.97;1.70;;;;;;;11.54;92.75;94215.47;5052015;28;20213;-82
2022/09/29 10:06:25;;;;;;;2.57;1.40;;;;;;;11.43;88.43;94219.53;5050818;28;20241;-82
2022/09/29 10:08:53;;;;;;;1.40;1.17;;;;;;;11.45;88.94;94226.28;5050922;28;20208;-83
2022/09/29 10:11:23;;;;;;;1.60;1.30;;;;;;;11.43;86.80;94224.69;5052191;28;20240;-83
2022/09/29 10:13:58;;;;;;;1.43;1.23;;;;;;;11.48;87.70;94225.84;5052546;28;20208;-82
2022/09/29 10:16:30;;;;;;;2.07;1.30;;;;;;;11.51;89.53;94226.22;5050490;28;20750;-82
2022/09/29 10:18:57;;;;;;;1.73;1.63;;;;;;;11.61;89.97;94228.28;5050952;28;20730;-82
2022/09/29 10:21:37;;;;;;;1.27;1.17;;;;;;;11.65;88.21;94219.91;5054794;28;20225;-80
2022/09/29 10:24:19;;;;;;;2.83;1.40;;;;;;;11.60;88.18;94217.16;5055601;28;20205;-80
2022/09/29 10:26:47;;;;;;;1.57;1.27;;;;;;;11.55;87.55;94224.75;5054493;28;20241;-80
2022/09/29 10:29:23;;;;;;;2.40;1.50;;;;;;;11.53;88.73;94223.44;5054754;28;20210;-81
2022/09/29 10:32:06;;;;;;;1.50;1.40;;;;;;;11.62;88.36;94230.63;5046455;28;20792;-81
2022/09/29 10:34:36;;;;;;;1.33;1.23;;;;;;;11.75;88.36;94227.09;5053806;28;20212;-83
2022/09/29 10:37:04;;;;;;;2.27;1.50;;;;;;;11.75;89.77;94232.25;5053790;28;20236;-81
2022/09/29 10:39:44;;;;;;;6.27;5.17;;;;;;;11.64;87.63;94226.06;5053689;28;20204;-82
2022/09/29 10:42:21;;;;;;;3.30;2.93;;;;;;;11.60;85.93;94235.22;5053833;28;20189;-81
2022/09/29 10:44:52;;;;;;;2.13;1.43;;;;;;;11.57;85.08;94238.22;5055157;28;20707;-81
2022/09/29 10:47:20;;;;;;;1.27;1.17;;;;;;;11.56;85.15;94230.69;5053190;28;20229;-81
2022/09/29 10:49:47;;;;;;;1.73;1.30;;;;;;;11.67;87.09;94240.31;5053432;28;20206;-81
2022/09/29 10:52:24;;;;;;;1.30;1.20;;;;;;;11.79;85.34;94245.53;5053167;28;20225;-82
2022/09/29 10:55:02;;;;;;;1.30;1.20;;;;;;;11.81;84.07;94241.75;5054268;28;20197;-82
2022/09/29 10:57:32;;;;;;;3.17;1.30;;;;;;;11.85;85.92;94237.75;5048872;28;20228;-81
2022/09/29 11:00:00;;;;;;;1.90;1.57;;;;;;;11.88;84.99;94239.09;5054584;28;20280;-82
2022/09/29 11:02:32;;;;;;;1.60;1.50;;;;;;;11.91;85.10;94236.09;5053329;28;20818;-81
2022/09/29 11:05:02;;;;;;;1.37;1.20;;;;;;;11.97;84.77;94236.00;5051835;28;20220;-81
2022/09/29 11:07:30;;;;;;;1.43;1.10;;;;;;;12.00;82.44;94245.09;5053939;28;20264;-80
2022/09/29 11:09:58;;;;;;;1.37;1.20;;;;;;;12.07;84.11;94246.59;5053710;28;20663;-81
2022/09/29 11:12:34;;;;;;;1.13;1.03;;;;;;;12.11;83.98;94249.53;5054075;28;20580;-81
2022/09/29 11:15:01;;;;;;;1.90;1.10;;;;;;;12.05;81.13;94252.97;5053950;28;20207;-82
2022/09/29 11:17:30;;;;;;;1.67;1.20;;;;;;;12.00;80.94;94250.25;5053916;28;20666;-81
2022/09/29 11:19:59;;;;;;;1.03;0.87;;;;;;;12.07;81.90;94256.13;5053745;28;20583;-82
2022/09/29 11:22:56;;;;;;;1.60;1.30;;;;;;;12.10;81.75;94251.31;5052767;28;20201;-82
2022/09/29 11:25:49;;;;;;;1.73;1.23;;;;;;;12.07;81.24;94249.16;5051481;28;20229;-81
2022/09/29 11:28:27;;;;;;;1.77;1.40;;;;;;;12.04;79.24;94254.75;5042703;28;20218;-82
2022/09/29 11:31:11;;;;;;;1.73;1.33;;;;;;;11.98;78.82;94254.84;5033708;28;20221;-81
2022/09/29 11:33:48;;;;;;;9.50;7.50;;;;;;;11.93;79.87;94249.56;5040117;28;20206;-81
2022/09/29 11:36:23;;;;;;;4.93;3.90;;;;;;;11.97;80.46;94258.41;5053135;28;20229;-82
2022/09/29 11:39:14;;;;;;;2.07;1.80;;;;;;;11.91;80.67;94267.84;5052956;28;20657;-82
2022/09/29 11:42:13;;;;;;;1.77;1.10;;;;;;;11.99;80.96;94272.69;5054012;28;20595;-81
2022/09/29 11:44:57;;;;;;;1.20;1.10;;;;;;;11.96;78.88;94262.00;5053150;28;20204;-82
2022/09/29 11:47:41;;;;;;;1.10;1.03;;;;;;;12.01;79.65;94267.31;5053163;28;20229;-82
2022/09/29 11:50:35;;;;;;;1.50;1.13;;;;;;;12.08;79.96;94265.44;5053518;28;20209;-82
2022/09/29 11:53:15;;;;;;;1.53;1.37;;;;;;;12.14;80.84;94272.28;5051101;28;20205;-81
2022/09/29 11:55:53;;;;;;;2.20;1.23;;;;;;;12.06;76.86;94273.41;5052705;28;20880;-82